Accueil
METAR-TAF:

METAR-TAF

Aéroports :

Saginaw County H.W. Browne Airport

Saginaw, Michigan, États-Unis

latitude: 43-26-00N, longitude: 083-51-45W, altitude: 183 m

Observation

Le bulletin a été fait il y a 19 minutes, à 19:15 UTC
Vent 14 kt de nord-ouest avec des rafales jusqu'à 19 kt
Température 28°C
Humidité 45%
Pression 1008 hPa
Visibilité: 16.1 km
Nuages épars à une hauteur de 6500 ft
Nuages épars à une hauteur de 7500 ft

METAR: KHYX 111915Z AUTO 32014G19KT 10SM SCT065 SCT075 28/15 A2977 RMK AO2

Heure: 15:34 (19:34 UTC)


TAF: absent

Observations et prévisions météorologiques de plus de 4000 aéroports (messages METAR et TAF).

Les stations disponibles sont représentées par des disques jaunes et rouges sur la carte.

Passer la souris dessus pour voir le nom de la station.

Cliquer dessus pour voir les observations et prévisions météorologiques.

Pour changer de carte: cliquez sur les boutons verts avec une croix noire pour zoomer, sur le bouton vert avec un tiret pour effectuer un zoom arrière, ou sur les flèches vertes pour les cartes adjacentes.


METAR-TAF: